KUOX/UOX METAR and TAF weather

Enter ICAO airport designator
Station Type Date Time Source
KUOX METAR 2020/08/12 18:15 UTC NOAA

KUOX 121815Z AUTO 00000KT 9SM SCT026 29/22 A3005 RMK AO2


Station Type Date Time Source
KUOX Decoded METAR 2020/08/12 18:15 UTC NOAA

Oxford, University-Oxford Airport, MS, United States (KUOX) 34-23-04N 089-32-08W
Aug 12, 2020 - 02:15 PM EDT / 2020.08.12 1815 UTC
Wind: Calm:0
Visibility: 9 mile(s):0
Sky conditions: partly cloudy
Temperature: 84 F (29 C)
Dew Point: 71 F (22 C)
Relative Humidity: 65%
Pressure (altimeter): 30.05 in. Hg (1017 hPa)
ob: KUOX 121815Z AUTO 00000KT 9SM SCT026 29/22 A3005 RMK AO2
cycle: 18

Station Type Date Time Source
KUOX TAF UTC NOAA

Error!

Example: see airport list